Главная страница
METAR-TAF:

METAR-TAF

Аэропорты :

Cape May County Airport

Вайлдвуд, Нью-Джерси, США

широта: 39-01N, долгота: 074-55W, высота над уровнем моря: 7 м

Текущие метеонаблюдения

Эта сводка был подготовлена 17 минут назад, в 23:55 UTC
Ветер 5 Узел от северо-западный
Температура 23°C
Влажность 69%
Давление 1016 hPa
Видимость: 16.1 км
ясное небо

METAR: KWWD 232355Z AUTO 32005KT 10SM CLR 23/17 A3001 RMK AO2 SLP163 T02280172 10261 20228 53011

Время: 20:12 (00:12 UTC)


TAF: отсутствует

Метеонаблюдения и прогнозы для более 4000 аэропортов (сводки METAR и TAF).

Имеющиеся станции представлены на карте желтыми и красными точками.

Чтобы увидеть название станции, наведите на нее мышь.

Затем щелкните, чтобы увидеть метеонаблюдения и метеопрогнозы.

Управление картой: чтобы увеличить масштаб, щелкните зеленые кнопки с черным крестиком; чтобы уменьшить масштаб, щелкните зеленую кнопку с тире; для просмотра соседних карт щелкайте зеленые стрелки.


METAR-TAF: